createdAt,value
2022-12-08T00:02:13.938Z,23.07
2022-12-08T00:04:56.528Z,27.27
2022-12-08T00:07:43.540Z,24.10
2022-12-08T00:10:40.233Z,22.50
2022-12-08T00:13:00.681Z,25.53
2022-12-08T00:15:29.043Z,28.50
2022-12-08T00:17:57.644Z,24.73
2022-12-08T00:20:26.415Z,27.53
2022-12-08T00:22:56.381Z,22.93
2022-12-08T00:25:25.030Z,32.10
2022-12-08T00:27:53.579Z,24.00
2022-12-08T00:30:22.164Z,23.03
2022-12-08T00:32:51.056Z,23.67
2022-12-08T00:35:19.523Z,29.00
2022-12-08T00:37:48.062Z,24.60
2022-12-08T00:40:18.097Z,22.20
2022-12-08T00:42:46.487Z,28.27
2022-12-08T00:45:14.949Z,30.80
2022-12-08T00:47:43.388Z,24.77
2022-12-08T00:50:12.322Z,26.70
2022-12-08T00:52:40.934Z,21.17
2022-12-08T00:55:09.762Z,27.23
2022-12-08T00:57:39.433Z,24.47
2022-12-08T01:00:08.654Z,29.30
2022-12-08T01:02:37.191Z,29.30
2022-12-08T01:05:06.130Z,18.53
2022-12-08T01:07:34.549Z,19.97
2022-12-08T01:10:03.468Z,25.20
2022-12-08T01:12:32.188Z,22.60
2022-12-08T01:15:02.769Z,22.67
2022-12-08T01:17:31.410Z,19.57
2022-12-08T01:19:59.886Z,21.97
2022-12-08T01:22:28.346Z,19.40
2022-12-08T01:24:56.912Z,21.07
2022-12-08T01:27:25.442Z,21.70
2022-12-08T01:29:53.902Z,25.77
2022-12-08T01:32:23.672Z,25.07
2022-12-08T01:34:52.554Z,27.63
2022-12-08T01:37:20.936Z,27.07
2022-12-08T01:39:49.371Z,26.90
2022-12-08T01:42:21.767Z,32.83
2022-12-08T01:45:02.619Z,23.80
2022-12-08T01:47:36.538Z,25.97
2022-12-08T01:50:06.179Z,30.30
2022-12-08T01:52:36.962Z,26.80
2022-12-08T01:55:08.348Z,28.03
2022-12-08T01:57:38.444Z,28.03
2022-12-08T02:00:08.645Z,29.13
2022-12-08T02:02:41.739Z,25.87
2022-12-08T02:05:11.560Z,31.43
2022-12-08T02:07:40.108Z,29.93
2022-12-08T02:10:09.114Z,21.83
2022-12-08T02:12:37.978Z,27.00
2022-12-08T02:15:07.114Z,29.63
2022-12-08T02:17:46.246Z,24.90
2022-12-08T02:20:27.252Z,21.90
2022-12-08T02:23:01.101Z,20.07
2022-12-08T02:25:33.073Z,17.97
2022-12-08T02:28:04.403Z,24.90
2022-12-08T02:30:38.050Z,21.63
2022-12-08T02:33:30.500Z,23.70
2022-12-08T02:36:01.605Z,19.40
2022-12-08T02:38:33.851Z,22.27
2022-12-08T02:41:17.263Z,25.00
2022-12-08T02:43:46.802Z,16.73
2022-12-08T02:46:17.512Z,19.67
2022-12-08T02:48:46.301Z,17.53
2022-12-08T02:51:16.362Z,18.63
2022-12-08T02:53:46.446Z,13.07
2022-12-08T02:56:21.579Z,22.17
2022-12-08T02:58:56.897Z,20.43
2022-12-08T03:01:33.019Z,18.70
2022-12-08T03:04:07.575Z,20.03
2022-12-08T03:06:42.642Z,19.13
2022-12-08T03:09:15.047Z,17.93
2022-12-08T03:11:46.205Z,26.00
2022-12-08T03:14:17.186Z,14.73
2022-12-08T03:16:47.564Z,17.50
2022-12-08T03:19:18.667Z,23.60
2022-12-08T03:21:49.583Z,18.17
2022-12-08T03:24:19.152Z,21.83
2022-12-08T03:26:48.303Z,17.07
2022-12-08T03:29:16.658Z,20.90
2022-12-08T03:31:47.727Z,16.90
2022-12-08T03:34:16.829Z,10.13
2022-12-08T03:36:45.926Z,15.13
2022-12-08T03:39:15.983Z,17.00
2022-12-08T03:41:44.499Z,21.53
2022-12-08T03:44:12.796Z,24.77
2022-12-08T03:46:41.489Z,16.70
2022-12-08T03:49:09.836Z,13.73
2022-12-08T03:51:38.284Z,22.40
2022-12-08T03:54:06.941Z,25.07
2022-12-08T03:56:38.045Z,18.40
2022-12-08T03:59:06.457Z,18.47
2022-12-08T04:01:34.964Z,22.53
2022-12-08T04:04:03.352Z,20.53
2022-12-08T04:06:32.114Z,18.43
2022-12-08T04:09:00.522Z,24.33
2022-12-08T04:11:28.889Z,24.30
2022-12-08T04:13:58.604Z,26.00
2022-12-08T04:16:28.496Z,22.40
2022-12-08T04:18:57.113Z,20.37
2022-12-08T04:21:25.705Z,20.60
2022-12-08T04:24:00.630Z,22.30
2022-12-08T04:26:29.893Z,22.37
2022-12-08T04:28:59.618Z,20.63
2022-12-08T04:31:28.094Z,19.70
2022-12-08T04:33:56.616Z,21.63
2022-12-08T04:36:25.045Z,23.50
2022-12-08T04:38:53.991Z,21.00
2022-12-08T04:41:22.508Z,17.03
2022-12-08T04:43:51.007Z,18.20
2022-12-08T04:46:20.566Z,24.50
2022-12-08T04:48:49.094Z,20.27
2022-12-08T04:51:17.921Z,23.03
2022-12-08T04:53:47.232Z,25.87
2022-12-08T04:56:16.173Z,21.87
2022-12-08T04:58:44.693Z,22.10
2022-12-08T05:01:13.767Z,19.77
2022-12-08T05:03:43.900Z,27.43
2022-12-08T05:06:12.770Z,20.23
2022-12-08T05:08:41.277Z,22.20
2022-12-08T05:11:10.482Z,22.13
2022-12-08T05:13:38.837Z,24.10
2022-12-08T05:16:08.216Z,26.20
2022-12-08T05:18:37.112Z,23.67
2022-12-08T05:21:07.426Z,21.57
2022-12-08T05:23:36.308Z,20.00
2022-12-08T05:26:04.846Z,20.83
2022-12-08T05:28:42.637Z,20.97
2022-12-08T05:31:11.941Z,24.73
2022-12-08T05:33:40.556Z,20.90
2022-12-08T05:36:10.987Z,25.83
2022-12-08T05:38:39.708Z,24.00
2022-12-08T05:41:08.568Z,21.93
2022-12-08T05:43:37.448Z,25.43
2022-12-08T05:46:06.474Z,22.10
2022-12-08T05:48:35.297Z,25.90
2022-12-08T05:51:04.344Z,22.33
2022-12-08T05:53:34.324Z,18.50
2022-12-08T05:56:02.584Z,25.13
2022-12-08T05:58:31.047Z,19.83
2022-12-08T06:00:59.770Z,22.10
2022-12-08T06:03:28.359Z,16.97
2022-12-08T06:05:56.819Z,17.20
2022-12-08T06:08:25.552Z,20.10
2022-12-08T06:10:55.501Z,19.50
2022-12-08T06:13:24.010Z,16.33
2022-12-08T06:15:52.907Z,21.47
2022-12-08T06:18:21.848Z,19.57
2022-12-08T06:20:50.481Z,20.40
2022-12-08T06:23:18.926Z,18.67
2022-12-08T06:25:47.827Z,22.50
2022-12-08T06:28:17.661Z,22.23
2022-12-08T06:30:45.802Z,23.40
2022-12-08T06:33:14.418Z,23.57
2022-12-08T06:35:42.891Z,16.60
2022-12-08T06:38:11.463Z,19.20
2022-12-08T06:40:40.164Z,19.80
2022-12-08T06:43:08.520Z,18.30
2022-12-08T06:45:38.305Z,16.57
2022-12-08T06:48:06.738Z,14.33
2022-12-08T06:50:35.127Z,10.50
2022-12-08T06:53:05.641Z,11.07
2022-12-08T06:58:22.506Z,12.73
2022-12-08T07:00:52.339Z,12.50
2022-12-08T07:03:20.735Z,15.17
2022-12-08T07:05:49.187Z,11.53
2022-12-08T07:08:17.615Z,12.90
2022-12-08T07:10:46.197Z,17.27
2022-12-08T07:13:14.698Z,11.77
2022-12-08T07:15:43.161Z,15.03
2022-12-08T07:18:12.946Z,13.07
2022-12-08T07:20:41.489Z,18.17
2022-12-08T07:23:09.838Z,15.77
2022-12-08T07:25:38.229Z,14.37
2022-12-08T07:28:10.812Z,16.30
2022-12-08T07:30:39.613Z,19.43
2022-12-08T07:33:08.127Z,15.70
2022-12-08T07:35:38.113Z,14.90
2022-12-08T07:38:06.443Z,19.43
2022-12-08T07:40:35.140Z,16.77
2022-12-08T07:43:03.509Z,14.93
2022-12-08T07:45:32.119Z,19.13
2022-12-08T07:48:00.768Z,18.93
2022-12-08T07:50:29.065Z,20.17
2022-12-08T07:52:58.854Z,18.10
2022-12-08T07:55:27.519Z,18.97
2022-12-08T07:57:55.974Z,21.90
2022-12-08T08:00:24.934Z,22.23
2022-12-08T08:02:53.608Z,19.93
2022-12-08T08:05:22.030Z,25.57
2022-12-08T08:07:50.553Z,17.23
2022-12-08T08:10:20.428Z,22.90
2022-12-08T08:12:48.888Z,15.93
2022-12-08T08:15:17.894Z,16.27
2022-12-08T08:17:46.211Z,14.40
2022-12-08T08:20:15.000Z,14.70
2022-12-08T08:22:43.401Z,18.27
2022-12-08T08:25:11.720Z,13.57
2022-12-08T08:27:41.487Z,18.10
2022-12-08T08:30:15.230Z,14.37
2022-12-08T08:32:46.672Z,17.03
2022-12-08T08:35:15.435Z,17.70
2022-12-08T08:37:48.619Z,16.53
2022-12-08T08:40:17.704Z,15.57
2022-12-08T08:42:47.110Z,14.43
2022-12-08T08:45:15.419Z,14.13
2022-12-08T08:47:43.834Z,15.07
2022-12-08T08:50:12.497Z,16.97
2022-12-08T08:52:41.021Z,15.30
2022-12-08T08:55:09.619Z,15.40
2022-12-08T08:57:37.999Z,13.07
2022-12-08T09:00:10.205Z,18.83
2022-12-08T09:02:38.867Z,16.27
2022-12-08T09:05:08.142Z,15.37
2022-12-08T09:07:36.592Z,14.33
2022-12-08T09:10:05.537Z,15.27
2022-12-08T09:12:34.232Z,16.07
2022-12-08T09:15:02.467Z,19.30
2022-12-08T09:17:32.268Z,16.37
2022-12-08T09:20:01.340Z,15.93
2022-12-08T09:22:30.015Z,17.10
2022-12-08T09:24:58.315Z,16.50
2022-12-08T09:27:26.706Z,15.33
2022-12-08T09:29:55.037Z,18.30
2022-12-08T09:32:23.670Z,17.03
2022-12-08T09:34:54.325Z,21.67
2022-12-08T09:37:22.763Z,17.23
2022-12-08T09:39:51.081Z,19.90
2022-12-08T09:42:25.686Z,22.27
2022-12-08T09:44:57.439Z,17.63
2022-12-08T09:47:33.794Z,10.63
2022-12-08T09:50:07.535Z,14.73
2022-12-08T09:52:40.880Z,12.73
2022-12-08T09:55:13.600Z,9.87
2022-12-08T09:57:42.034Z,11.37
2022-12-08T10:00:14.668Z,10.50
2022-12-08T10:02:43.258Z,12.50
2022-12-08T10:05:15.721Z,16.20
2022-12-08T10:07:47.540Z,8.47
2022-12-08T10:10:21.652Z,6.67
2022-12-08T10:12:54.051Z,7.70
2022-12-08T10:15:33.595Z,4.93
2022-12-08T10:18:03.066Z,7.70
2022-12-08T10:20:37.529Z,5.83
2022-12-08T10:23:11.155Z,11.13
2022-12-08T10:25:41.179Z,8.83
2022-12-08T10:28:10.200Z,4.33
2022-12-08T10:30:38.714Z,5.10
2022-12-08T10:33:07.409Z,4.53
2022-12-08T10:35:46.306Z,6.53
2022-12-08T10:38:23.040Z,5.37
2022-12-08T10:40:52.741Z,6.43
2022-12-08T10:43:23.886Z,6.07
2022-12-08T10:45:52.331Z,6.43
2022-12-08T10:48:21.975Z,5.17
2022-12-08T10:50:55.470Z,4.87
2022-12-08T10:53:25.368Z,8.60
2022-12-08T10:55:55.134Z,6.47
2022-12-08T10:58:41.516Z,6.03
2022-12-08T11:01:12.978Z,4.77
2022-12-08T11:03:45.567Z,4.03
2022-12-08T11:06:17.867Z,3.90
2022-12-08T11:08:48.635Z,5.60
2022-12-08T11:11:17.080Z,6.37
2022-12-08T11:13:45.502Z,6.23
2022-12-08T11:16:15.423Z,5.70
2022-12-08T11:18:45.139Z,4.87
2022-12-08T11:21:15.110Z,5.97
2022-12-08T11:23:47.914Z,5.07
2022-12-08T11:26:21.246Z,5.47
2022-12-08T11:28:49.587Z,4.13
2022-12-08T11:31:24.964Z,6.83
2022-12-08T11:33:54.141Z,5.63
2022-12-08T11:36:24.191Z,8.70
2022-12-08T11:39:01.982Z,6.13
2022-12-08T11:41:33.163Z,6.20
2022-12-08T11:44:05.471Z,9.67
2022-12-08T11:46:36.399Z,10.93
2022-12-08T11:49:06.982Z,9.37
2022-12-08T11:51:37.322Z,6.73
2022-12-08T11:54:15.479Z,9.83
2022-12-08T11:56:46.708Z,9.43
2022-12-08T11:59:19.336Z,8.73
2022-12-08T12:01:48.189Z,12.43
2022-12-08T12:04:19.974Z,10.10
2022-12-08T12:06:55.956Z,14.37
2022-12-08T12:09:31.585Z,10.37
2022-12-08T12:12:17.000Z,11.47
2022-12-08T12:14:53.923Z,11.97
2022-12-08T12:17:28.533Z,16.33
2022-12-08T12:19:57.449Z,13.03
2022-12-08T12:22:26.280Z,10.33
2022-12-08T12:24:56.003Z,12.67
2022-12-08T12:27:27.144Z,10.03
2022-12-08T12:29:57.505Z,14.13
2022-12-08T12:32:26.381Z,12.83
2022-12-08T12:34:56.265Z,19.13
2022-12-08T12:37:25.772Z,13.97
2022-12-08T12:39:59.416Z,11.77
2022-12-08T12:42:41.928Z,12.33
2022-12-08T12:45:28.179Z,14.07
2022-12-08T12:48:11.429Z,14.43
2022-12-08T12:50:43.651Z,12.17
2022-12-08T12:53:26.837Z,14.27
2022-12-08T12:55:57.982Z,12.70
2022-12-08T12:58:38.000Z,16.77
2022-12-08T13:01:25.522Z,16.97
2022-12-08T13:04:04.128Z,10.53
2022-12-08T13:06:39.276Z,16.83
2022-12-08T13:09:08.380Z,19.67
2022-12-08T13:11:48.854Z,11.10
2022-12-08T13:14:31.217Z,9.63
2022-12-08T13:17:00.703Z,6.43
2022-12-08T13:19:32.213Z,8.70
2022-12-08T13:22:01.172Z,10.40
2022-12-08T13:24:36.170Z,10.10
2022-12-08T13:27:37.833Z,10.20
2022-12-08T13:30:25.625Z,9.03
2022-12-08T13:35:48.547Z,8.57
2022-12-08T13:38:19.076Z,13.30
2022-12-08T13:40:48.256Z,9.50
2022-12-08T13:43:19.074Z,7.67
2022-12-08T13:46:48.811Z,10.43
2022-12-08T13:57:26.164Z,9.63
2022-12-08T13:59:54.514Z,9.63
2022-12-08T14:02:27.131Z,7.40
2022-12-08T14:07:46.102Z,7.50
2022-12-08T14:10:17.986Z,10.17
2022-12-08T14:12:48.545Z,8.70
2022-12-08T14:15:17.713Z,11.47
2022-12-08T14:17:52.704Z,12.10
2022-12-08T14:20:24.939Z,14.00
2022-12-08T14:22:53.792Z,8.97
2022-12-08T14:25:23.062Z,9.93
2022-12-08T14:27:51.679Z,10.93
2022-12-08T14:30:22.411Z,12.37
2022-12-08T14:32:51.469Z,8.57
2022-12-08T14:35:21.962Z,9.90
2022-12-08T14:37:52.372Z,12.20
2022-12-08T14:40:24.281Z,9.27
2022-12-08T14:42:53.736Z,9.03
2022-12-08T14:45:22.253Z,9.10
2022-12-08T14:47:51.217Z,9.23
2022-12-08T14:50:40.846Z,7.83
2022-12-08T14:53:15.913Z,8.33
2022-12-08T14:55:45.185Z,11.63
2022-12-08T14:58:18.522Z,8.63
2022-12-08T15:00:48.144Z,10.73
2022-12-08T15:03:17.718Z,9.73
2022-12-08T15:05:46.361Z,8.93
2022-12-08T15:08:16.552Z,8.80
2022-12-08T15:10:48.192Z,9.43
2022-12-08T15:13:23.713Z,9.40
2022-12-08T15:15:53.248Z,8.03
2022-12-08T15:18:23.519Z,8.30
2022-12-08T15:20:54.438Z,7.17
2022-12-08T15:23:27.981Z,8.13
2022-12-08T15:25:57.110Z,11.03
2022-12-08T15:28:29.662Z,8.23
2022-12-08T15:30:59.120Z,7.00
2022-12-08T15:33:27.712Z,4.07
2022-12-08T15:35:56.102Z,7.57
2022-12-08T15:38:27.756Z,12.00
2022-12-08T15:40:57.546Z,6.70
2022-12-08T15:43:26.070Z,5.97
2022-12-08T15:45:59.651Z,5.17
2022-12-08T15:48:29.446Z,15.23
2022-12-08T15:50:57.750Z,15.17
2022-12-08T15:53:27.254Z,36.10
2022-12-08T15:58:53.408Z,24.80
2022-12-08T16:01:23.616Z,5.13
2022-12-08T16:09:33.001Z,7.80
2022-12-08T16:12:19.196Z,8.87
2022-12-08T16:15:48.121Z,6.60
2022-12-08T16:17:36.654Z,9.20
2022-12-08T16:20:05.935Z,6.00
2022-12-08T16:25:25.117Z,9.53
2022-12-08T16:28:17.407Z,9.30
2022-12-08T16:30:43.253Z,11.53
2022-12-08T16:33:12.344Z,12.27
2022-12-08T16:35:41.079Z,14.47
2022-12-08T16:38:09.714Z,20.43
2022-12-08T16:40:59.854Z,10.33
2022-12-08T16:43:27.175Z,12.33
2022-12-08T16:45:55.709Z,12.47
2022-12-08T16:48:24.224Z,14.00
2022-12-08T16:50:53.942Z,8.77
2022-12-08T16:53:22.623Z,12.57
2022-12-08T16:55:52.529Z,13.07
2022-12-08T16:58:21.629Z,11.47
2022-12-08T17:00:50.429Z,16.13
2022-12-08T17:03:19.348Z,13.57
2022-12-08T17:05:47.912Z,15.77
2022-12-08T17:08:16.316Z,24.77
2022-12-08T17:11:04.774Z,12.93
2022-12-08T17:13:34.683Z,14.47
2022-12-08T17:16:03.188Z,13.90
2022-12-08T17:18:31.633Z,11.93
2022-12-08T17:21:00.123Z,12.73
2022-12-08T17:23:28.517Z,12.80
2022-12-08T17:26:00.676Z,12.30
2022-12-08T17:28:51.908Z,11.90
2022-12-08T17:31:19.004Z,10.40
2022-12-08T17:33:47.410Z,16.37
2022-12-08T17:36:17.435Z,12.63
2022-12-08T17:38:46.106Z,17.40
2022-12-08T17:41:14.519Z,13.43
2022-12-08T17:43:42.998Z,11.57
2022-12-08T17:46:11.416Z,19.00
2022-12-08T17:48:41.157Z,18.73
2022-12-08T17:51:11.042Z,17.37
2022-12-08T17:53:40.782Z,11.97
2022-12-08T17:56:16.337Z,14.97
2022-12-08T17:58:46.620Z,14.17
2022-12-08T18:01:18.309Z,16.70
2022-12-08T18:03:48.093Z,13.00
2022-12-08T18:06:17.695Z,11.53
2022-12-08T18:08:46.284Z,12.13
2022-12-08T18:11:15.774Z,10.07
2022-12-08T18:13:45.519Z,10.30
2022-12-08T18:16:14.165Z,12.80
2022-12-08T18:18:42.650Z,10.73
2022-12-08T18:21:12.423Z,7.87
2022-12-08T18:23:40.811Z,9.87
2022-12-08T18:26:10.118Z,13.30
2022-12-08T18:28:38.894Z,7.77
2022-12-08T18:31:09.793Z,6.10
2022-12-08T18:33:38.692Z,12.20
2022-12-08T18:36:09.274Z,9.87
2022-12-08T18:38:39.364Z,8.57
2022-12-08T18:41:08.432Z,8.87
2022-12-08T18:43:36.986Z,7.83
2022-12-08T18:46:07.622Z,20.27
2022-12-08T18:48:36.146Z,12.57
2022-12-08T18:51:04.517Z,6.57
2022-12-08T18:53:32.930Z,9.53
2022-12-08T18:56:02.358Z,7.50
2022-12-08T18:58:30.715Z,8.83
2022-12-08T19:00:59.136Z,9.60
2022-12-08T19:03:27.881Z,10.17
2022-12-08T19:06:03.557Z,6.87
2022-12-08T19:08:32.049Z,8.30
2022-12-08T19:11:00.775Z,7.57
2022-12-08T19:13:30.562Z,8.63
2022-12-08T19:15:59.144Z,7.43
2022-12-08T19:18:27.683Z,9.77
2022-12-08T19:20:56.947Z,10.10
2022-12-08T19:23:25.461Z,8.17
2022-12-08T19:25:53.854Z,10.80
2022-12-08T19:28:21.927Z,11.03
2022-12-08T19:30:51.337Z,8.93
2022-12-08T19:33:20.041Z,10.13
2022-12-08T19:35:52.624Z,11.47
2022-12-08T19:38:21.369Z,9.53
2022-12-08T19:41:07.221Z,12.27
2022-12-08T19:43:53.319Z,9.60
2022-12-08T19:46:23.190Z,12.43
2022-12-08T19:48:51.707Z,9.60
2022-12-08T19:51:20.065Z,11.63
2022-12-08T19:53:48.387Z,7.73
2022-12-08T19:56:16.748Z,8.63
2022-12-08T19:58:45.169Z,13.17
2022-12-08T20:01:13.635Z,12.30
2022-12-08T20:03:43.484Z,15.93
2022-12-08T20:06:13.440Z,10.23
2022-12-08T20:08:44.917Z,14.53
2022-12-08T20:11:17.343Z,12.57
2022-12-08T20:13:47.659Z,9.97
2022-12-08T20:16:16.754Z,16.43
2022-12-08T20:18:48.582Z,12.00
2022-12-08T20:21:17.381Z,11.20
2022-12-08T20:23:48.728Z,14.03
2022-12-08T20:26:17.942Z,12.17
2022-12-08T20:28:46.638Z,13.00
2022-12-08T20:31:19.893Z,18.17
2022-12-08T20:33:49.866Z,11.80
2022-12-08T20:36:19.418Z,15.20
2022-12-08T20:38:47.893Z,16.37
2022-12-08T20:41:16.701Z,15.43
2022-12-08T20:43:45.138Z,12.77
2022-12-08T20:46:14.630Z,11.10
2022-12-08T20:48:43.228Z,13.73
2022-12-08T20:51:15.564Z,17.50
2022-12-08T20:53:44.122Z,15.73
2022-12-08T20:56:15.963Z,14.03
2022-12-08T20:58:44.381Z,14.47
2022-12-08T21:01:13.097Z,17.87
2022-12-08T21:03:41.837Z,15.97
2022-12-08T21:06:10.963Z,14.47
2022-12-08T21:08:41.717Z,13.97
2022-12-08T21:11:10.952Z,14.80
2022-12-08T21:13:39.807Z,11.67
2022-12-08T21:16:09.526Z,16.80
2022-12-08T21:18:39.805Z,12.63
2022-12-08T21:21:09.506Z,16.50
2022-12-08T21:23:38.400Z,16.83
2022-12-08T21:26:13.103Z,16.77
2022-12-08T21:28:41.904Z,19.57
2022-12-08T21:31:10.894Z,16.60
2022-12-08T21:33:39.378Z,19.30
2022-12-08T21:36:09.510Z,17.27
2022-12-08T21:38:37.901Z,13.63
2022-12-08T21:41:06.920Z,17.13
2022-12-08T21:43:36.948Z,18.27
2022-12-08T21:46:05.621Z,12.27
2022-12-08T21:48:34.200Z,17.57
2022-12-08T21:51:05.384Z,18.73
2022-12-08T21:53:33.900Z,16.50
2022-12-08T21:56:02.601Z,18.27
2022-12-08T21:58:32.666Z,18.77
2022-12-08T22:01:07.923Z,12.83
2022-12-08T22:03:36.581Z,17.00
2022-12-08T22:06:06.388Z,17.77
2022-12-08T22:08:35.034Z,18.97
2022-12-08T22:11:04.170Z,21.07
2022-12-08T22:13:32.758Z,17.57
2022-12-08T22:16:02.333Z,12.03
2022-12-08T22:18:32.781Z,17.40
2022-12-08T22:21:01.253Z,16.30
2022-12-08T22:23:30.426Z,15.67
2022-12-08T22:25:59.279Z,19.77
2022-12-08T22:28:28.377Z,19.87
2022-12-08T22:30:56.754Z,21.37
2022-12-08T22:33:25.147Z,17.97
2022-12-08T22:35:58.650Z,17.13
2022-12-08T22:38:27.254Z,18.90
2022-12-08T22:40:55.881Z,20.73
2022-12-08T22:43:24.608Z,14.70
2022-12-08T22:45:53.189Z,13.53
2022-12-08T22:48:21.687Z,15.50
2022-12-08T22:50:50.250Z,14.33
2022-12-08T22:53:20.343Z,19.13
2022-12-08T22:55:48.879Z,15.20
2022-12-08T22:58:17.114Z,13.03
2022-12-08T23:00:45.470Z,17.00
2022-12-08T23:03:14.044Z,20.23
2022-12-08T23:05:43.162Z,14.23
2022-12-08T23:08:15.433Z,18.63
2022-12-08T23:10:45.878Z,17.07
2022-12-08T23:13:15.242Z,14.73
2022-12-08T23:15:43.679Z,20.70
2022-12-08T23:18:15.172Z,17.60
2022-12-08T23:20:44.120Z,15.67
2022-12-08T23:23:12.557Z,17.87
2022-12-08T23:25:42.163Z,16.13
2022-12-08T23:28:13.207Z,14.70
2022-12-08T23:30:41.948Z,14.73
2022-12-08T23:33:10.642Z,17.17
2022-12-08T23:35:39.513Z,19.43
2022-12-08T23:38:08.128Z,16.90
2022-12-08T23:40:36.569Z,17.20
2022-12-08T23:43:07.092Z,18.30
2022-12-08T23:45:37.194Z,20.00
2022-12-08T23:48:05.852Z,22.33
2022-12-08T23:50:34.434Z,21.33
2022-12-08T23:53:02.882Z,21.20
2022-12-08T23:55:31.446Z,19.13
2022-12-08T23:57:59.987Z,21.33
